sensor_id;sensor_type;location;lat;lon;timestamp;pressure;altitude;pressure_sealevel;temperature;humidity
28344;BME280;15597;50.914;6.638;2022-10-16T00:01:39;100376.63;;;18.08;59.35
28344;BME280;15597;50.914;6.638;2022-10-16T00:04:05;100382.69;;;18.10;59.38
28344;BME280;15597;50.914;6.638;2022-10-16T00:06:30;100379.09;;;18.11;59.65
28344;BME280;15597;50.914;6.638;2022-10-16T00:08:56;100380.97;;;18.09;59.40
28344;BME280;15597;50.914;6.638;2022-10-16T00:11:33;100387.28;;;18.06;59.32
28344;BME280;15597;50.914;6.638;2022-10-16T00:14:01;100375.69;;;18.09;59.28
28344;BME280;15597;50.914;6.638;2022-10-16T00:16:28;100389.69;;;18.11;59.24
28344;BME280;15597;50.914;6.638;2022-10-16T00:18:54;100388.63;;;18.14;59.18
28344;BME280;15597;50.914;6.638;2022-10-16T00:21:23;100389.50;;;18.14;59.07
28344;BME280;15597;50.914;6.638;2022-10-16T00:24:09;100382.50;;;18.13;59.38
28344;BME280;15597;50.914;6.638;2022-10-16T00:26:36;100371.91;;;18.13;59.40
28344;BME280;15597;50.914;6.638;2022-10-16T00:29:03;100368.16;;;18.17;59.11
28344;BME280;15597;50.914;6.638;2022-10-16T00:31:29;100360.22;;;18.17;59.21
28344;BME280;15597;50.914;6.638;2022-10-16T00:33:55;100355.84;;;18.16;59.00
28344;BME280;15597;50.914;6.638;2022-10-16T00:36:23;100354.16;;;18.15;59.23
28344;BME280;15597;50.914;6.638;2022-10-16T00:38:54;100366.63;;;18.13;59.11
28344;BME280;15597;50.914;6.638;2022-10-16T00:41:22;100352.44;;;18.14;59.18
28344;BME280;15597;50.914;6.638;2022-10-16T00:43:52;100356.03;;;18.13;59.12
28344;BME280;15597;50.914;6.638;2022-10-16T00:49:02;100367.56;;;18.12;59.11
28344;BME280;15597;50.914;6.638;2022-10-16T00:51:35;100363.78;;;18.16;58.88
28344;BME280;15597;50.914;6.638;2022-10-16T00:54:04;100361.16;;;18.16;58.91
28344;BME280;15597;50.914;6.638;2022-10-16T00:56:32;100380.44;;;18.18;58.84
28344;BME280;15597;50.914;6.638;2022-10-16T00:58:59;100381.22;;;18.20;58.77
28344;BME280;15597;50.914;6.638;2022-10-16T01:01:26;100384.88;;;18.02;59.28
28344;BME280;15597;50.914;6.638;2022-10-16T01:03:52;100367.81;;;18.07;59.16
28344;BME280;15597;50.914;6.638;2022-10-16T01:06:32;100365.34;;;18.04;58.89
28344;BME280;15597;50.914;6.638;2022-10-16T01:14:22;100376.84;;;18.03;58.86
28344;BME280;15597;50.914;6.638;2022-10-16T01:17:00;100386.44;;;18.06;58.88
28344;BME280;15597;50.914;6.638;2022-10-16T01:19:41;100379.44;;;18.05;58.97
28344;BME280;15597;50.914;6.638;2022-10-16T01:22:09;100388.91;;;18.09;58.76
28344;BME280;15597;50.914;6.638;2022-10-16T01:24:49;100383.78;;;18.06;58.87
28344;BME280;15597;50.914;6.638;2022-10-16T01:27:22;100373.19;;;18.06;58.83
28344;BME280;15597;50.914;6.638;2022-10-16T01:30:02;100374.16;;;18.05;58.66
28344;BME280;15597;50.914;6.638;2022-10-16T01:32:39;100393.63;;;18.04;58.86
28344;BME280;15597;50.914;6.638;2022-10-16T01:35:11;100390.88;;;18.05;58.87
28344;BME280;15597;50.914;6.638;2022-10-16T01:40:18;100391.56;;;18.09;58.78
28344;BME280;15597;50.914;6.638;2022-10-16T01:42:49;100391.56;;;18.09;58.59
28344;BME280;15597;50.914;6.638;2022-10-16T01:45:18;100403.84;;;18.10;58.51
28344;BME280;15597;50.914;6.638;2022-10-16T01:47:45;100401.97;;;18.12;58.52
28344;BME280;15597;50.914;6.638;2022-10-16T01:50:13;100399.41;;;18.10;58.67
28344;BME280;15597;50.914;6.638;2022-10-16T01:52:43;100403.84;;;18.10;58.71
28344;BME280;15597;50.914;6.638;2022-10-16T01:55:13;100392.31;;;18.11;58.73
28344;BME280;15597;50.914;6.638;2022-10-16T01:57:42;100401.09;;;18.12;58.67
28344;BME280;15597;50.914;6.638;2022-10-16T02:00:12;100392.22;;;18.13;58.54
28344;BME280;15597;50.914;6.638;2022-10-16T02:02:41;100408.03;;;18.14;58.75
28344;BME280;15597;50.914;6.638;2022-10-16T02:05:26;100406.56;;;18.08;58.66
28344;BME280;15597;50.914;6.638;2022-10-16T02:07:53;100412.56;;;18.12;58.63
28344;BME280;15597;50.914;6.638;2022-10-16T02:10:20;100410.88;;;18.11;58.59
28344;BME280;15597;50.914;6.638;2022-10-16T02:12:50;100418.97;;;18.08;58.52
28344;BME280;15597;50.914;6.638;2022-10-16T02:15:19;100401.38;;;18.07;58.77
28344;BME280;15597;50.914;6.638;2022-10-16T02:17:44;100396.16;;;18.05;58.59
28344;BME280;15597;50.914;6.638;2022-10-16T02:20:10;100406.91;;;18.02;58.65
28344;BME280;15597;50.914;6.638;2022-10-16T02:22:39;100400.91;;;17.99;58.72
28344;BME280;15597;50.914;6.638;2022-10-16T02:25:13;100404.66;;;17.94;58.66
28344;BME280;15597;50.914;6.638;2022-10-16T02:31:00;100413.28;;;17.82;58.83
28344;BME280;15597;50.914;6.638;2022-10-16T02:33:25;100414.22;;;17.81;58.87
28344;BME280;15597;50.914;6.638;2022-10-16T02:35:54;100414.38;;;17.78;59.11
28344;BME280;15597;50.914;6.638;2022-10-16T02:38:21;100412.59;;;17.78;59.12
28344;BME280;15597;50.914;6.638;2022-10-16T02:40:47;100417.13;;;17.76;59.02
28344;BME280;15597;50.914;6.638;2022-10-16T02:43:13;100409.25;;;17.75;59.04
28344;BME280;15597;50.914;6.638;2022-10-16T02:45:39;100408.41;;;17.74;59.21
28344;BME280;15597;50.914;6.638;2022-10-16T02:48:05;100418.13;;;17.74;59.13
28344;BME280;15597;50.914;6.638;2022-10-16T02:50:30;100416.41;;;17.73;59.09
28344;BME280;15597;50.914;6.638;2022-10-16T02:52:56;100416.41;;;17.73;59.07
28344;BME280;15597;50.914;6.638;2022-10-16T02:55:21;100412.16;;;17.70;59.13
28344;BME280;15597;50.914;6.638;2022-10-16T02:57:47;100414.03;;;17.68;59.09
28344;BME280;15597;50.914;6.638;2022-10-16T03:00:16;100412.41;;;17.65;59.36
28344;BME280;15597;50.914;6.638;2022-10-16T03:02:42;100414.28;;;17.63;59.08
28344;BME280;15597;50.914;6.638;2022-10-16T03:05:08;100405.56;;;17.61;59.18
28344;BME280;15597;50.914;6.638;2022-10-16T03:07:34;100391.66;;;17.58;59.18
28344;BME280;15597;50.914;6.638;2022-10-16T03:10:00;100390.03;;;17.55;59.10
28344;BME280;15597;50.914;6.638;2022-10-16T03:12:26;100393.63;;;17.54;59.04
28344;BME280;15597;50.914;6.638;2022-10-16T03:14:52;100391.13;;;17.51;59.32
28344;BME280;15597;50.914;6.638;2022-10-16T03:17:18;100386.72;;;17.51;59.18
28344;BME280;15597;50.914;6.638;2022-10-16T03:19:43;100389.41;;;17.50;59.07
28344;BME280;15597;50.914;6.638;2022-10-16T03:22:09;100409.72;;;17.49;59.10
28344;BME280;15597;50.914;6.638;2022-10-16T03:24:34;100404.53;;;17.48;59.16
28344;BME280;15597;50.914;6.638;2022-10-16T03:27:00;100384.28;;;17.47;59.26
28344;BME280;15597;50.914;6.638;2022-10-16T03:29:26;100391.28;;;17.48;59.39
28344;BME280;15597;50.914;6.638;2022-10-16T03:31:52;100410.66;;;17.48;59.24
28344;BME280;15597;50.914;6.638;2022-10-16T03:34:18;100405.28;;;17.50;59.26
28344;BME280;15597;50.914;6.638;2022-10-16T03:36:44;100404.53;;;17.48;59.24
28344;BME280;15597;50.914;6.638;2022-10-16T03:39:09;100404.53;;;17.48;59.27
28344;BME280;15597;50.914;6.638;2022-10-16T03:41:35;100410.75;;;17.47;59.22
28344;BME280;15597;50.914;6.638;2022-10-16T03:44:00;100406.28;;;17.47;59.27
28344;BME280;15597;50.914;6.638;2022-10-16T03:46:26;100418.59;;;17.48;59.12
28344;BME280;15597;50.914;6.638;2022-10-16T03:48:51;100423.88;;;17.48;59.15
28344;BME280;15597;50.914;6.638;2022-10-16T03:51:17;100431.75;;;17.50;59.33
28344;BME280;15597;50.914;6.638;2022-10-16T03:53:42;100435.31;;;17.49;59.01
28344;BME280;15597;50.914;6.638;2022-10-16T03:56:08;100439.69;;;17.50;59.15
28344;BME280;15597;50.914;6.638;2022-10-16T03:58:33;100437.91;;;17.50;59.23
28344;BME280;15597;50.914;6.638;2022-10-16T04:00:59;100429.16;;;17.48;59.23
28344;BME280;15597;50.914;6.638;2022-10-16T04:03:24;100441.56;;;17.48;59.03
28344;BME280;15597;50.914;6.638;2022-10-16T04:05:50;100431.91;;;17.47;59.32
28344;BME280;15597;50.914;6.638;2022-10-16T04:08:15;100423.19;;;17.45;59.26
28344;BME280;15597;50.914;6.638;2022-10-16T04:10:44;100432.06;;;17.44;59.37
28344;BME280;15597;50.914;6.638;2022-10-16T04:13:09;100439.91;;;17.45;59.27
28344;BME280;15597;50.914;6.638;2022-10-16T04:15:35;100435.66;;;17.43;59.44
28344;BME280;15597;50.914;6.638;2022-10-16T04:18:01;100439.25;;;17.42;59.25
28344;BME280;15597;50.914;6.638;2022-10-16T04:20:26;100443.75;;;17.40;59.26
28344;BME280;15597;50.914;6.638;2022-10-16T04:22:52;100439.41;;;17.38;59.33
28344;BME280;15597;50.914;6.638;2022-10-16T04:25:17;100434.16;;;17.37;59.40
28344;BME280;15597;50.914;6.638;2022-10-16T04:27:43;100427.19;;;17.36;59.40
28344;BME280;15597;50.914;6.638;2022-10-16T04:30:09;100435.97;;;17.36;59.36
28344;BME280;15597;50.914;6.638;2022-10-16T04:32:34;100435.97;;;17.36;59.40
28344;BME280;15597;50.914;6.638;2022-10-16T04:35:00;100443.31;;;17.31;59.40
28344;BME280;15597;50.914;6.638;2022-10-16T04:37:26;100447.81;;;17.29;59.24
28344;BME280;15597;50.914;6.638;2022-10-16T04:39:52;100438.25;;;17.27;59.17
28344;BME280;15597;50.914;6.638;2022-10-16T04:42:19;100439.31;;;17.22;59.42
28344;BME280;15597;50.914;6.638;2022-10-16T04:44:44;100445.66;;;17.20;59.54
28344;BME280;15597;50.914;6.638;2022-10-16T04:47:10;100460.75;;;17.18;59.56
28344;BME280;15597;50.914;6.638;2022-10-16T04:49:35;100468.81;;;17.15;59.63
28344;BME280;15597;50.914;6.638;2022-10-16T04:52:01;100479.41;;;17.15;59.86
28344;BME280;15597;50.914;6.638;2022-10-16T04:54:26;100482.81;;;17.17;59.61
28344;BME280;15597;50.914;6.638;2022-10-16T04:56:52;100464.31;;;17.17;59.72
28344;BME280;15597;50.914;6.638;2022-10-16T04:59:19;100477.38;;;17.20;60.01
28344;BME280;15597;50.914;6.638;2022-10-16T05:01:45;100482.66;;;17.20;59.75
28344;BME280;15597;50.914;6.638;2022-10-16T05:04:11;100487.94;;;17.20;59.61
28344;BME280;15597;50.914;6.638;2022-10-16T05:06:37;100493.25;;;17.20;59.60
28344;BME280;15597;50.914;6.638;2022-10-16T05:09:04;100492.47;;;17.18;59.65
28344;BME280;15597;50.914;6.638;2022-10-16T05:11:31;100505.69;;;17.18;59.60
28344;BME280;15597;50.914;6.638;2022-10-16T05:13:56;100496.88;;;17.17;59.74
28344;BME280;15597;50.914;6.638;2022-10-16T05:16:22;100498.69;;;17.17;59.53
28344;BME280;15597;50.914;6.638;2022-10-16T05:18:47;100491.59;;;17.17;59.67
28344;BME280;15597;50.914;6.638;2022-10-16T05:21:13;100493.41;;;17.17;59.64
28344;BME280;15597;50.914;6.638;2022-10-16T05:23:39;100501.31;;;17.17;59.97
28344;BME280;15597;50.914;6.638;2022-10-16T05:26:04;100509.25;;;17.17;60.18
28344;BME280;15597;50.914;6.638;2022-10-16T05:28:30;100503.09;;;17.16;60.09
28344;BME280;15597;50.914;6.638;2022-10-16T05:30:56;100507.53;;;17.16;59.75
28344;BME280;15597;50.914;6.638;2022-10-16T05:33:24;100518.13;;;17.16;59.87
28344;BME280;15597;50.914;6.638;2022-10-16T05:35:51;100524.19;;;17.18;59.76
28344;BME280;15597;50.914;6.638;2022-10-16T05:38:17;100515.38;;;17.17;59.99
28344;BME280;15597;50.914;6.638;2022-10-16T05:40:49;100509.94;;;17.20;59.89
28344;BME280;15597;50.914;6.638;2022-10-16T05:43:15;100516.09;;;17.21;59.64
28344;BME280;15597;50.914;6.638;2022-10-16T05:45:41;100509.88;;;17.22;59.68
28344;BME280;15597;50.914;6.638;2022-10-16T05:48:07;100505.38;;;17.24;59.46
28344;BME280;15597;50.914;6.638;2022-10-16T05:50:32;100531.66;;;17.27;59.68
28344;BME280;15597;50.914;6.638;2022-10-16T05:52:58;100537.72;;;17.29;59.62
28344;BME280;15597;50.914;6.638;2022-10-16T05:55:23;100538.50;;;17.31;59.60
28344;BME280;15597;50.914;6.638;2022-10-16T05:57:49;100541.91;;;17.33;59.60
28344;BME280;15597;50.914;6.638;2022-10-16T06:00:15;100550.63;;;17.35;59.55
28344;BME280;15597;50.914;6.638;2022-10-16T06:02:40;100554.06;;;17.37;59.57
28344;BME280;15597;50.914;6.638;2022-10-16T06:05:06;100561.06;;;17.38;59.34
28344;BME280;15597;50.914;6.638;2022-10-16T06:07:34;100562.75;;;17.40;59.23
28344;BME280;15597;50.914;6.638;2022-10-16T06:10:00;100566.19;;;17.42;59.29
28344;BME280;15597;50.914;6.638;2022-10-16T06:12:26;100569.63;;;17.44;59.16
28344;BME280;15597;50.914;6.638;2022-10-16T06:14:52;100572.31;;;17.42;59.25
28344;BME280;15597;50.914;6.638;2022-10-16T06:17:17;100573.19;;;17.43;59.17
28344;BME280;15597;50.914;6.638;2022-10-16T06:19:43;100569.75;;;17.41;59.17
28344;BME280;15597;50.914;6.638;2022-10-16T06:22:08;100568.91;;;17.40;59.14
28344;BME280;15597;50.914;6.638;2022-10-16T06:24:34;100583.16;;;17.37;59.49
28344;BME280;15597;50.914;6.638;2022-10-16T06:26:59;100584.91;;;17.37;59.40
28344;BME280;15597;50.914;6.638;2022-10-16T06:29:25;100591.13;;;17.36;59.49
28344;BME280;15597;50.914;6.638;2022-10-16T06:31:50;100591.22;;;17.34;59.40
28344;BME280;15597;50.914;6.638;2022-10-16T06:34:16;100600.94;;;17.34;59.47
28344;BME280;15597;50.914;6.638;2022-10-16T06:36:42;100608.97;;;17.32;59.56
28344;BME280;15597;50.914;6.638;2022-10-16T06:39:08;100609.97;;;17.30;59.68
28344;BME280;15597;50.914;6.638;2022-10-16T06:41:34;100609.19;;;17.28;60.10
28344;BME280;15597;50.914;6.638;2022-10-16T06:44:13;100610.25;;;17.23;59.94
28344;BME280;15597;50.914;6.638;2022-10-16T06:46:39;100613.84;;;17.22;59.97
28344;BME280;15597;50.914;6.638;2022-10-16T06:49:04;100616.44;;;17.24;60.31
28344;BME280;15597;50.914;6.638;2022-10-16T06:51:30;100627.84;;;17.25;60.13
28344;BME280;15597;50.914;6.638;2022-10-16T06:53:57;100618.97;;;17.26;60.13
28344;BME280;15597;50.914;6.638;2022-10-16T06:56:24;100632.97;;;17.28;60.08
28344;BME280;15597;50.914;6.638;2022-10-16T06:58:51;100643.34;;;17.32;60.38
28344;BME280;15597;50.914;6.638;2022-10-16T07:01:20;100644.03;;;17.36;60.20
28344;BME280;15597;50.914;6.638;2022-10-16T07:03:46;100635.09;;;17.38;60.11
28344;BME280;15597;50.914;6.638;2022-10-16T07:06:14;100643.81;;;17.41;59.94
28344;BME280;15597;50.914;6.638;2022-10-16T07:08:41;100648.09;;;17.43;59.98
28344;BME280;15597;50.914;6.638;2022-10-16T07:11:09;100651.59;;;17.44;60.03
28344;BME280;15597;50.914;6.638;2022-10-16T07:13:35;100659.38;;;17.29;60.23
28344;BME280;15597;50.914;6.638;2022-10-16T07:16:13;100668.13;;;17.30;60.45
28344;BME280;15597;50.914;6.638;2022-10-16T07:18:39;100680.06;;;17.38;60.71
28344;BME280;15597;50.914;6.638;2022-10-16T07:21:06;100673.59;;;17.44;60.37
28344;BME280;15597;50.914;6.638;2022-10-16T07:23:32;100681.41;;;17.47;60.35
28344;BME280;15597;50.914;6.638;2022-10-16T07:25:58;100684.81;;;17.49;60.30
28344;BME280;15597;50.914;6.638;2022-10-16T07:28:23;100683.81;;;17.52;60.17
28344;BME280;15597;50.914;6.638;2022-10-16T07:30:49;100679.31;;;17.54;60.59
28344;BME280;15597;50.914;6.638;2022-10-16T07:33:14;100687.09;;;17.57;60.51
28344;BME280;15597;50.914;6.638;2022-10-16T07:35:50;100691.59;;;17.55;60.23
28344;BME280;15597;50.914;6.638;2022-10-16T07:38:16;100693.94;;;17.61;60.24
28344;BME280;15597;50.914;6.638;2022-10-16T07:40:42;100702.66;;;17.63;60.13
28344;BME280;15597;50.914;6.638;2022-10-16T07:43:08;100708.75;;;17.65;60.17
28344;BME280;15597;50.914;6.638;2022-10-16T07:45:33;100708.69;;;17.67;60.01
28344;BME280;15597;50.914;6.638;2022-10-16T07:47:59;100713.81;;;17.70;60.23
28344;BME280;15597;50.914;6.638;2022-10-16T07:50:25;100712.94;;;17.70;59.80
28344;BME280;15597;50.914;6.638;2022-10-16T07:52:50;100713.81;;;17.70;59.88
28344;BME280;15597;50.914;6.638;2022-10-16T07:55:16;100715.53;;;17.71;59.74
28344;BME280;15597;50.914;6.638;2022-10-16T07:57:42;100714.66;;;17.71;59.69
28344;BME280;15597;50.914;6.638;2022-10-16T08:00:08;100725.25;;;17.71;59.70
28344;BME280;15597;50.914;6.638;2022-10-16T08:02:39;100736.78;;;17.70;59.77
28344;BME280;15597;50.914;6.638;2022-10-16T08:05:05;100733.28;;;17.69;59.71
28344;BME280;15597;50.914;6.638;2022-10-16T08:07:31;100737.69;;;17.69;59.76
28344;BME280;15597;50.914;6.638;2022-10-16T08:09:56;100730.69;;;17.67;60.12
28344;BME280;15597;50.914;6.638;2022-10-16T08:12:23;100740.34;;;17.69;60.32
28344;BME280;15597;50.914;6.638;2022-10-16T08:14:49;100743.00;;;17.69;60.26
28344;BME280;15597;50.914;6.638;2022-10-16T08:17:14;100742.06;;;17.70;60.18
28344;BME280;15597;50.914;6.638;2022-10-16T08:19:44;100739.56;;;17.66;59.84
28344;BME280;15597;50.914;6.638;2022-10-16T08:22:10;100746.56;;;17.67;59.97
28344;BME280;15597;50.914;6.638;2022-10-16T08:24:35;100751.88;;;17.67;60.11
28344;BME280;15597;50.914;6.638;2022-10-16T08:27:02;100754.44;;;17.69;60.16
28344;BME280;15597;50.914;6.638;2022-10-16T08:29:28;100758.72;;;17.72;60.29
28344;BME280;15597;50.914;6.638;2022-10-16T08:31:53;100764.00;;;17.72;60.36
28344;BME280;15597;50.914;6.638;2022-10-16T08:34:20;100774.59;;;17.72;60.40
28344;BME280;15597;50.914;6.638;2022-10-16T08:36:46;100776.31;;;17.73;60.37
28344;BME280;15597;50.914;6.638;2022-10-16T08:39:11;100780.53;;;17.77;60.29
28344;BME280;15597;50.914;6.638;2022-10-16T08:44:48;100776.47;;;17.70;60.63
28344;BME280;15597;50.914;6.638;2022-10-16T08:47:23;100778.19;;;17.71;60.89
28344;BME280;15597;50.914;6.638;2022-10-16T08:52:21;100787.78;;;17.73;60.97
28344;BME280;15597;50.914;6.638;2022-10-16T08:54:49;100794.63;;;17.77;60.89
28344;BME280;15597;50.914;6.638;2022-10-16T08:57:20;100795.16;;;17.84;60.94
28344;BME280;15597;50.914;6.638;2022-10-16T08:59:46;100788.72;;;17.90;61.10
28344;BME280;15597;50.914;6.638;2022-10-16T09:02:37;100793.16;;;17.89;60.99
28344;BME280;15597;50.914;6.638;2022-10-16T09:07:59;100794.31;;;18.03;60.75
28344;BME280;15597;50.914;6.638;2022-10-16T09:13:29;100790.44;;;18.10;61.02
28344;BME280;15597;50.914;6.638;2022-10-16T09:16:22;100786.84;;;18.11;60.87
28344;BME280;15597;50.914;6.638;2022-10-16T09:19:09;100793.78;;;18.14;60.93
28344;BME280;15597;50.914;6.638;2022-10-16T09:21:41;100800.56;;;18.19;60.78
28344;BME280;15597;50.914;6.638;2022-10-16T09:24:16;100794.41;;;18.19;60.79
28344;BME280;15597;50.914;6.638;2022-10-16T09:26:43;100803.75;;;18.26;60.70
28344;BME280;15597;50.914;6.638;2022-10-16T09:29:12;100803.53;;;18.31;60.66
28344;BME280;15597;50.914;6.638;2022-10-16T09:31:37;100799.63;;;18.38;60.83
28344;BME280;15597;50.914;6.638;2022-10-16T09:34:04;100803.75;;;18.44;60.56
28344;BME280;15597;50.914;6.638;2022-10-16T09:36:39;100806.31;;;18.45;60.64
28344;BME280;15597;50.914;6.638;2022-10-16T09:39:09;100799.00;;;18.50;60.28
28344;BME280;15597;50.914;6.638;2022-10-16T09:41:38;100809.44;;;18.53;60.06
28344;BME280;15597;50.914;6.638;2022-10-16T09:44:05;100810.38;;;18.35;60.48
28344;BME280;15597;50.914;6.638;2022-10-16T09:46:35;100800.56;;;18.37;60.36
28344;BME280;15597;50.914;6.638;2022-10-16T09:49:21;100803.22;;;18.37;60.51
28344;BME280;15597;50.914;6.638;2022-10-16T09:51:47;100809.59;;;18.50;60.33
28344;BME280;15597;50.914;6.638;2022-10-16T09:54:15;100813.59;;;18.59;60.09
28344;BME280;15597;50.914;6.638;2022-10-16T09:56:41;100807.09;;;18.65;59.84
28344;BME280;15597;50.914;6.638;2022-10-16T09:59:12;100804.38;;;18.66;59.68
28344;BME280;15597;50.914;6.638;2022-10-16T10:01:41;100799.59;;;18.73;59.60
28344;BME280;15597;50.914;6.638;2022-10-16T10:04:08;100803.63;;;18.80;59.45
28344;BME280;15597;50.914;6.638;2022-10-16T10:06:37;100795.50;;;18.83;59.17
28344;BME280;15597;50.914;6.638;2022-10-16T10:09:24;100795.63;;;18.82;59.21
28344;BME280;15597;50.914;6.638;2022-10-16T10:16:46;100790.97;;;19.03;59.10
28344;BME280;15597;50.914;6.638;2022-10-16T10:19:14;100782.59;;;19.11;58.96
28344;BME280;15597;50.914;6.638;2022-10-16T10:21:40;100791.00;;;19.19;58.75
28344;BME280;15597;50.914;6.638;2022-10-16T10:24:10;100799.50;;;19.26;58.67
28344;BME280;15597;50.914;6.638;2022-10-16T10:26:37;100810.19;;;19.40;58.42
28344;BME280;15597;50.914;6.638;2022-10-16T10:29:24;100807.44;;;19.42;58.36
28344;BME280;15597;50.914;6.638;2022-10-16T10:40:04;100822.19;;;19.64;58.28
28344;BME280;15597;50.914;6.638;2022-10-16T10:45:44;100815.91;;;19.81;57.77
28344;BME280;15597;50.914;6.638;2022-10-16T10:48:31;100817.91;;;19.93;57.59
28344;BME280;15597;50.914;6.638;2022-10-16T10:51:08;100816.44;;;20.04;57.42
28344;BME280;15597;50.914;6.638;2022-10-16T10:56:50;100810.00;;;20.08;57.05
28344;BME280;15597;50.914;6.638;2022-10-16T10:59:31;100816.75;;;20.13;56.82
28344;BME280;15597;50.914;6.638;2022-10-16T11:02:18;100817.53;;;20.16;56.72
28344;BME280;15597;50.914;6.638;2022-10-16T11:07:40;100816.72;;;20.29;56.15
28344;BME280;15597;50.914;6.638;2022-10-16T11:10:15;100820.56;;;20.40;55.86
28344;BME280;15597;50.914;6.638;2022-10-16T11:12:45;100818.28;;;20.48;55.28
28344;BME280;15597;50.914;6.638;2022-10-16T11:15:31;100818.28;;;20.48;55.61
28344;BME280;15597;50.914;6.638;2022-10-16T11:18:06;100826.94;;;20.52;55.23
28344;BME280;15597;50.914;6.638;2022-10-16T11:20:53;100826.09;;;20.51;55.23
28344;BME280;15597;50.914;6.638;2022-10-16T11:23:29;100826.66;;;20.56;55.37
28344;BME280;15597;50.914;6.638;2022-10-16T11:26:00;100826.28;;;20.63;55.00
28344;BME280;15597;50.914;6.638;2022-10-16T11:28:35;100817.19;;;20.67;55.04
28344;BME280;15597;50.914;6.638;2022-10-16T11:31:34;100830.47;;;20.67;55.37
28344;BME280;15597;50.914;6.638;2022-10-16T11:36:38;100839.25;;;20.83;55.61
28344;BME280;15597;50.914;6.638;2022-10-16T11:39:20;100840.41;;;20.79;55.08
28344;BME280;15597;50.914;6.638;2022-10-16T11:42:10;100838.63;;;20.80;55.48
28344;BME280;15597;50.914;6.638;2022-10-16T11:47:26;100846.88;;;21.04;54.38
28344;BME280;15597;50.914;6.638;2022-10-16T11:49:58;100834.81;;;21.13;54.14
28344;BME280;15597;50.914;6.638;2022-10-16T11:52:36;100837.00;;;21.21;54.24
28344;BME280;15597;50.914;6.638;2022-10-16T11:57:42;100835.19;;;21.36;54.01
28344;BME280;15597;50.914;6.638;2022-10-16T12:00:33;100834.72;;;21.29;53.67
28344;BME280;15597;50.914;6.638;2022-10-16T12:06:12;100843.44;;;21.45;53.53
28344;BME280;15597;50.914;6.638;2022-10-16T12:08:39;100833.81;;;21.57;53.37
28344;BME280;15597;50.914;6.638;2022-10-16T12:11:08;100836.78;;;21.67;52.84
28344;BME280;15597;50.914;6.638;2022-10-16T12:13:42;100830.31;;;21.71;52.93
28344;BME280;15597;50.914;6.638;2022-10-16T12:18:37;100847.53;;;21.93;52.24
28344;BME280;15597;50.914;6.638;2022-10-16T12:21:04;100834.00;;;21.96;52.11
28344;BME280;15597;50.914;6.638;2022-10-16T12:23:37;100829.91;;;21.78;53.30
28344;BME280;15597;50.914;6.638;2022-10-16T12:26:04;100828.88;;;21.93;52.62
28344;BME280;15597;50.914;6.638;2022-10-16T12:28:32;100826.38;;;22.04;52.12
28344;BME280;15597;50.914;6.638;2022-10-16T12:31:03;100833.19;;;22.09;51.98
28344;BME280;15597;50.914;6.638;2022-10-16T12:33:36;100825.66;;;22.15;51.70
28344;BME280;15597;50.914;6.638;2022-10-16T12:36:14;100818.84;;;22.24;51.43
28344;BME280;15597;50.914;6.638;2022-10-16T12:38:49;100819.81;;;22.23;51.59
28344;BME280;15597;50.914;6.638;2022-10-16T12:41:24;100820.84;;;22.08;52.93
28344;BME280;15597;50.914;6.638;2022-10-16T12:43:50;100828.56;;;22.25;52.14
28344;BME280;15597;50.914;6.638;2022-10-16T12:48:43;100830.63;;;22.35;51.90
28344;BME280;15597;50.914;6.638;2022-10-16T12:53:37;100839.63;;;22.46;51.51
28344;BME280;15597;50.914;6.638;2022-10-16T12:58:59;100832.50;;;22.60;50.46
28344;BME280;15597;50.914;6.638;2022-10-16T13:01:42;100821.84;;;22.73;50.22
28344;BME280;15597;50.914;6.638;2022-10-16T13:07:12;100818.84;;;22.90;51.20
28344;BME280;15597;50.914;6.638;2022-10-16T13:09:53;100815.97;;;22.94;51.21
28344;BME280;15597;50.914;6.638;2022-10-16T13:18:19;100824.59;;;23.10;50.45
28344;BME280;15597;50.914;6.638;2022-10-16T13:20:59;100823.41;;;23.14;50.42
28344;BME280;15597;50.914;6.638;2022-10-16T13:23:36;100825.13;;;23.15;50.57
28344;BME280;15597;50.914;6.638;2022-10-16T13:26:17;100827.38;;;23.34;51.31
28344;BME280;15597;50.914;6.638;2022-10-16T13:28:46;100822.34;;;23.67;51.60
28344;BME280;15597;50.914;6.638;2022-10-16T13:31:18;100815.59;;;23.99;50.82
28344;BME280;15597;50.914;6.638;2022-10-16T13:33:47;100829.44;;;24.28;50.42
28344;BME280;15597;50.914;6.638;2022-10-16T13:36:25;100819.81;;;24.50;50.57
28344;BME280;15597;50.914;6.638;2022-10-16T13:39:12;100822.31;;;24.76;50.12
28344;BME280;15597;50.914;6.638;2022-10-16T13:41:38;100824.50;;;24.82;51.34
28344;BME280;15597;50.914;6.638;2022-10-16T13:44:03;100810.88;;;25.19;49.48
28344;BME280;15597;50.914;6.638;2022-10-16T13:46:30;100808.16;;;25.42;48.46
28344;BME280;15597;50.914;6.638;2022-10-16T13:51:26;100822.50;;;25.75;46.63
28344;BME280;15597;50.914;6.638;2022-10-16T13:53:54;100817.31;;;25.95;46.58
28344;BME280;15597;50.914;6.638;2022-10-16T13:56:22;100815.19;;;26.10;45.96
28344;BME280;15597;50.914;6.638;2022-10-16T13:59:22;100813.88;;;26.04;45.98
28344;BME280;15597;50.914;6.638;2022-10-16T14:01:49;100819.16;;;26.27;45.40
28344;BME280;15597;50.914;6.638;2022-10-16T14:04:16;100826.41;;;26.36;44.95
28344;BME280;15597;50.914;6.638;2022-10-16T14:06:43;100829.44;;;26.43;44.54
28344;BME280;15597;50.914;6.638;2022-10-16T14:09:30;100831.25;;;26.43;44.20
28344;BME280;15597;50.914;6.638;2022-10-16T14:12:00;100822.94;;;26.46;43.63
28344;BME280;15597;50.914;6.638;2022-10-16T14:14:32;100820.53;;;26.43;43.41
28344;BME280;15597;50.914;6.638;2022-10-16T14:16:59;100826.16;;;26.39;43.16
28344;BME280;15597;50.914;6.638;2022-10-16T14:19:27;100815.50;;;26.28;42.91
28344;BME280;15597;50.914;6.638;2022-10-16T14:21:54;100814.31;;;26.21;42.58